Terminal Aerodrome Forecast
Issued by NWS

Home | Current Version | Previous Version | Graphics & Text | Print | Product List | Glossary On
Versions: 1 2 3 4 5 6 7 8 9 10 11 12 13 14 15 16 17 18 19 20 21
000
FTUS43 KICT 251730
TAFSLN
TAF
KSLN 251730Z 2518/2618 22012KT P6SM FEW200
     FM252000 31015G25KT P6SM SCT050 BKN100
     FM252200 36025G35KT P6SM OVC050
     FM261200 35020G30KT P6SM BKN250=

USA.gov is the U.S. government's official web portal to all federal, state and local government web resources and services.